sensor_id;sensor_type;location;lat;lon;timestamp;temperature;humidity
84114;DHT22;74483;48.846;2.358;2024-03-02T00:00:21;21.30;26.60
84114;DHT22;74483;48.846;2.358;2024-03-02T00:02:48;21.30;26.60
84114;DHT22;74483;48.846;2.358;2024-03-02T00:05:16;21.30;26.60
84114;DHT22;74483;48.846;2.358;2024-03-02T00:07:43;21.30;26.60
84114;DHT22;74483;48.846;2.358;2024-03-02T00:10:10;21.30;26.60
84114;DHT22;74483;48.846;2.358;2024-03-02T00:12:38;21.30;26.60
84114;DHT22;74483;48.846;2.358;2024-03-02T00:15:29;21.30;26.60
84114;DHT22;74483;48.846;2.358;2024-03-02T00:17:59;21.30;26.60
84114;DHT22;74483;48.846;2.358;2024-03-02T00:20:25;21.30;26.60
84114;DHT22;74483;48.846;2.358;2024-03-02T00:23:07;21.30;26.60
84114;DHT22;74483;48.846;2.358;2024-03-02T00:25:41;21.30;26.60
84114;DHT22;74483;48.846;2.358;2024-03-02T00:28:28;21.30;26.60
84114;DHT22;74483;48.846;2.358;2024-03-02T00:33:31;21.30;26.60
84114;DHT22;74483;48.846;2.358;2024-03-02T00:35:57;21.20;26.50
84114;DHT22;74483;48.846;2.358;2024-03-02T00:38:25;21.30;26.60
84114;DHT22;74483;48.846;2.358;2024-03-02T00:40:51;21.20;26.50
84114;DHT22;74483;48.846;2.358;2024-03-02T00:43:45;21.20;26.50
84114;DHT22;74483;48.846;2.358;2024-03-02T00:46:13;21.30;26.50
84114;DHT22;74483;48.846;2.358;2024-03-02T00:49:31;21.20;26.50
84114;DHT22;74483;48.846;2.358;2024-03-02T00:51:34;21.20;26.50
84114;DHT22;74483;48.846;2.358;2024-03-02T00:54:02;21.20;26.50
84114;DHT22;74483;48.846;2.358;2024-03-02T00:56:29;21.20;26.50
84114;DHT22;74483;48.846;2.358;2024-03-02T00:58:55;21.20;26.40
84114;DHT22;74483;48.846;2.358;2024-03-02T01:01:21;21.20;26.40
84114;DHT22;74483;48.846;2.358;2024-03-02T01:03:47;21.20;26.40
84114;DHT22;74483;48.846;2.358;2024-03-02T01:06:12;21.20;26.40
84114;DHT22;74483;48.846;2.358;2024-03-02T01:08:39;21.20;26.40
84114;DHT22;74483;48.846;2.358;2024-03-02T01:11:04;21.20;26.40
84114;DHT22;74483;48.846;2.358;2024-03-02T01:13:31;21.20;26.40
84114;DHT22;74483;48.846;2.358;2024-03-02T01:15:56;21.20;26.40
84114;DHT22;74483;48.846;2.358;2024-03-02T01:18:22;21.20;26.40
84114;DHT22;74483;48.846;2.358;2024-03-02T01:20:49;21.20;26.40
84114;DHT22;74483;48.846;2.358;2024-03-02T01:23:17;21.20;26.40
84114;DHT22;74483;48.846;2.358;2024-03-02T01:25:43;21.20;26.40
84114;DHT22;74483;48.846;2.358;2024-03-02T01:28:09;21.20;26.40
84114;DHT22;74483;48.846;2.358;2024-03-02T01:30:35;21.10;26.30
84114;DHT22;74483;48.846;2.358;2024-03-02T01:33:00;21.20;26.30
84114;DHT22;74483;48.846;2.358;2024-03-02T01:35:27;21.20;26.40
84114;DHT22;74483;48.846;2.358;2024-03-02T01:37:53;21.20;26.30
84114;DHT22;74483;48.846;2.358;2024-03-02T01:40:19;21.10;26.30
84114;DHT22;74483;48.846;2.358;2024-03-02T01:42:45;21.20;26.30
84114;DHT22;74483;48.846;2.358;2024-03-02T01:45:11;21.10;26.30
84114;DHT22;74483;48.846;2.358;2024-03-02T01:47:37;21.10;26.30
84114;DHT22;74483;48.846;2.358;2024-03-02T01:50:02;21.10;26.30
84114;DHT22;74483;48.846;2.358;2024-03-02T01:52:28;21.10;26.30
84114;DHT22;74483;48.846;2.358;2024-03-02T01:54:54;21.10;26.20
84114;DHT22;74483;48.846;2.358;2024-03-02T01:57:20;21.10;26.20
84114;DHT22;74483;48.846;2.358;2024-03-02T01:59:46;21.10;26.20
84114;DHT22;74483;48.846;2.358;2024-03-02T02:02:16;21.10;26.20
84114;DHT22;74483;48.846;2.358;2024-03-02T02:04:42;21.10;26.20
84114;DHT22;74483;48.846;2.358;2024-03-02T02:07:08;21.10;26.20
84114;DHT22;74483;48.846;2.358;2024-03-02T02:09:33;21.10;26.20
84114;DHT22;74483;48.846;2.358;2024-03-02T02:11:59;21.10;26.20
84114;DHT22;74483;48.846;2.358;2024-03-02T02:14:25;21.10;26.20
84114;DHT22;74483;48.846;2.358;2024-03-02T02:16:51;21.10;26.20
84114;DHT22;74483;48.846;2.358;2024-03-02T02:19:17;21.10;26.20
84114;DHT22;74483;48.846;2.358;2024-03-02T02:21:43;21.10;26.10
84114;DHT22;74483;48.846;2.358;2024-03-02T02:24:09;21.10;26.20
84114;DHT22;74483;48.846;2.358;2024-03-02T02:26:35;21.10;26.10
84114;DHT22;74483;48.846;2.358;2024-03-02T02:29:00;21.10;26.20
84114;DHT22;74483;48.846;2.358;2024-03-02T02:31:26;21.10;26.10
84114;DHT22;74483;48.846;2.358;2024-03-02T02:33:51;21.10;26.10
84114;DHT22;74483;48.846;2.358;2024-03-02T02:36:17;21.10;26.10
84114;DHT22;74483;48.846;2.358;2024-03-02T02:38:45;21.10;26.10
84114;DHT22;74483;48.846;2.358;2024-03-02T02:41:12;21.10;26.10
84114;DHT22;74483;48.846;2.358;2024-03-02T02:43:38;21.10;26.10
84114;DHT22;74483;48.846;2.358;2024-03-02T02:46:05;21.10;26.10
84114;DHT22;74483;48.846;2.358;2024-03-02T02:48:31;21.10;26.10
84114;DHT22;74483;48.846;2.358;2024-03-02T02:50:56;21.10;26.10
84114;DHT22;74483;48.846;2.358;2024-03-02T02:53:22;21.10;26.10
84114;DHT22;74483;48.846;2.358;2024-03-02T02:55:48;21.10;26.10
84114;DHT22;74483;48.846;2.358;2024-03-02T02:58:13;21.00;26.00
84114;DHT22;74483;48.846;2.358;2024-03-02T03:00:40;21.10;26.10
84114;DHT22;74483;48.846;2.358;2024-03-02T03:03:05;21.10;26.10
84114;DHT22;74483;48.846;2.358;2024-03-02T03:05:31;21.00;26.00
84114;DHT22;74483;48.846;2.358;2024-03-02T03:07:57;21.10;26.00
84114;DHT22;74483;48.846;2.358;2024-03-02T03:10:22;21.10;26.00
84114;DHT22;74483;48.846;2.358;2024-03-02T03:12:51;21.00;25.90
84114;DHT22;74483;48.846;2.358;2024-03-02T03:15:17;21.10;26.00
84114;DHT22;74483;48.846;2.358;2024-03-02T03:17:42;21.10;26.00
84114;DHT22;74483;48.846;2.358;2024-03-02T03:20:08;21.00;25.90
84114;DHT22;74483;48.846;2.358;2024-03-02T03:22:40;21.00;25.90
84114;DHT22;74483;48.846;2.358;2024-03-02T03:25:06;21.00;25.90
84114;DHT22;74483;48.846;2.358;2024-03-02T03:27:35;21.00;25.90
84114;DHT22;74483;48.846;2.358;2024-03-02T03:30:01;21.00;25.90
84114;DHT22;74483;48.846;2.358;2024-03-02T03:32:27;21.00;25.80
84114;DHT22;74483;48.846;2.358;2024-03-02T03:34:53;21.00;25.80
84114;DHT22;74483;48.846;2.358;2024-03-02T03:37:19;21.10;25.90
84114;DHT22;74483;48.846;2.358;2024-03-02T03:39:45;21.00;25.80
84114;DHT22;74483;48.846;2.358;2024-03-02T03:42:10;21.00;25.80
84114;DHT22;74483;48.846;2.358;2024-03-02T03:44:36;21.00;25.80
84114;DHT22;74483;48.846;2.358;2024-03-02T03:47:01;21.00;25.80
84114;DHT22;74483;48.846;2.358;2024-03-02T03:49:28;21.00;25.80
84114;DHT22;74483;48.846;2.358;2024-03-02T03:51:53;21.00;25.80
84114;DHT22;74483;48.846;2.358;2024-03-02T03:54:19;21.00;25.80
84114;DHT22;74483;48.846;2.358;2024-03-02T03:56:44;21.00;25.80
84114;DHT22;74483;48.846;2.358;2024-03-02T03:59:10;21.00;25.70
84114;DHT22;74483;48.846;2.358;2024-03-02T04:01:36;21.00;25.70
84114;DHT22;74483;48.846;2.358;2024-03-02T04:04:01;21.00;25.70
84114;DHT22;74483;48.846;2.358;2024-03-02T04:06:29;21.00;25.70
84114;DHT22;74483;48.846;2.358;2024-03-02T04:08:55;21.00;25.70
84114;DHT22;74483;48.846;2.358;2024-03-02T04:11:20;21.00;25.70
84114;DHT22;74483;48.846;2.358;2024-03-02T04:13:46;21.00;25.70
84114;DHT22;74483;48.846;2.358;2024-03-02T04:16:11;21.00;25.60
84114;DHT22;74483;48.846;2.358;2024-03-02T04:18:37;21.00;25.70
84114;DHT22;74483;48.846;2.358;2024-03-02T04:21:05;21.00;25.60
84114;DHT22;74483;48.846;2.358;2024-03-02T04:23:30;21.00;25.60
84114;DHT22;74483;48.846;2.358;2024-03-02T04:25:56;21.00;25.60
84114;DHT22;74483;48.846;2.358;2024-03-02T04:28:21;21.00;25.60
84114;DHT22;74483;48.846;2.358;2024-03-02T04:30:47;21.00;25.90
84114;DHT22;74483;48.846;2.358;2024-03-02T04:33:12;21.00;25.60
84114;DHT22;74483;48.846;2.358;2024-03-02T04:35:38;21.00;25.60
84114;DHT22;74483;48.846;2.358;2024-03-02T04:38:04;21.00;25.60
84114;DHT22;74483;48.846;2.358;2024-03-02T04:40:29;21.00;25.50
84114;DHT22;74483;48.846;2.358;2024-03-02T04:42:55;21.00;25.50
84114;DHT22;74483;48.846;2.358;2024-03-02T04:45:21;21.00;25.50
84114;DHT22;74483;48.846;2.358;2024-03-02T04:47:46;21.00;25.50
84114;DHT22;74483;48.846;2.358;2024-03-02T04:50:12;21.00;25.50
84114;DHT22;74483;48.846;2.358;2024-03-02T04:52:37;21.00;25.50
84114;DHT22;74483;48.846;2.358;2024-03-02T04:55:03;21.00;25.50
84114;DHT22;74483;48.846;2.358;2024-03-02T04:57:35;21.00;25.50
84114;DHT22;74483;48.846;2.358;2024-03-02T05:00:01;21.00;25.50
84114;DHT22;74483;48.846;2.358;2024-03-02T05:02:27;21.00;25.50
84114;DHT22;74483;48.846;2.358;2024-03-02T05:04:52;21.00;25.50
84114;DHT22;74483;48.846;2.358;2024-03-02T05:07:18;21.00;25.40
84114;DHT22;74483;48.846;2.358;2024-03-02T05:09:43;21.00;25.40
84114;DHT22;74483;48.846;2.358;2024-03-02T05:12:10;21.00;25.40
84114;DHT22;74483;48.846;2.358;2024-03-02T05:14:54;21.00;25.40
84114;DHT22;74483;48.846;2.358;2024-03-02T05:17:20;20.90;25.40
84114;DHT22;74483;48.846;2.358;2024-03-02T05:19:46;20.90;25.40
84114;DHT22;74483;48.846;2.358;2024-03-02T05:22:11;20.90;25.40
84114;DHT22;74483;48.846;2.358;2024-03-02T05:24:37;20.90;25.40
84114;DHT22;74483;48.846;2.358;2024-03-02T05:27:02;21.00;25.40
84114;DHT22;74483;48.846;2.358;2024-03-02T05:29:28;20.90;25.40
84114;DHT22;74483;48.846;2.358;2024-03-02T05:31:53;20.90;25.30
84114;DHT22;74483;48.846;2.358;2024-03-02T05:34:19;21.00;25.40
84114;DHT22;74483;48.846;2.358;2024-03-02T05:36:44;20.90;25.40
84114;DHT22;74483;48.846;2.358;2024-03-02T05:39:10;20.90;25.30
84114;DHT22;74483;48.846;2.358;2024-03-02T05:41:36;20.90;25.30
84114;DHT22;74483;48.846;2.358;2024-03-02T05:44:01;20.90;25.30
84114;DHT22;74483;48.846;2.358;2024-03-02T05:46:27;20.90;25.30
84114;DHT22;74483;48.846;2.358;2024-03-02T05:48:53;20.90;25.30
84114;DHT22;74483;48.846;2.358;2024-03-02T05:51:19;20.90;25.40
84114;DHT22;74483;48.846;2.358;2024-03-02T05:53:44;20.90;25.30
84114;DHT22;74483;48.846;2.358;2024-03-02T05:56:10;20.90;25.30
84114;DHT22;74483;48.846;2.358;2024-03-02T05:58:37;20.90;25.30
84114;DHT22;74483;48.846;2.358;2024-03-02T06:01:22;20.90;25.30
84114;DHT22;74483;48.846;2.358;2024-03-02T06:03:56;20.90;25.30
84114;DHT22;74483;48.846;2.358;2024-03-02T06:06:25;20.90;25.30
84114;DHT22;74483;48.846;2.358;2024-03-02T06:08:52;20.90;25.30
84114;DHT22;74483;48.846;2.358;2024-03-02T06:11:19;20.90;25.30
84114;DHT22;74483;48.846;2.358;2024-03-02T06:13:45;20.90;25.30
84114;DHT22;74483;48.846;2.358;2024-03-02T06:16:11;20.90;25.30
84114;DHT22;74483;48.846;2.358;2024-03-02T06:18:36;20.90;25.30
84114;DHT22;74483;48.846;2.358;2024-03-02T06:21:02;20.90;25.30
84114;DHT22;74483;48.846;2.358;2024-03-02T06:23:28;20.90;25.30
84114;DHT22;74483;48.846;2.358;2024-03-02T06:25:54;20.90;25.20
84114;DHT22;74483;48.846;2.358;2024-03-02T06:28:19;20.90;25.20
84114;DHT22;74483;48.846;2.358;2024-03-02T06:30:45;20.90;25.20
84114;DHT22;74483;48.846;2.358;2024-03-02T06:33:11;20.90;25.20
84114;DHT22;74483;48.846;2.358;2024-03-02T06:35:36;20.90;25.20
84114;DHT22;74483;48.846;2.358;2024-03-02T06:38:02;20.90;25.20
84114;DHT22;74483;48.846;2.358;2024-03-02T06:40:28;20.90;25.20
84114;DHT22;74483;48.846;2.358;2024-03-02T06:42:53;20.90;25.20
84114;DHT22;74483;48.846;2.358;2024-03-02T06:45:19;20.90;25.20
84114;DHT22;74483;48.846;2.358;2024-03-02T06:47:44;20.90;25.20
84114;DHT22;74483;48.846;2.358;2024-03-02T06:50:11;20.90;25.10
84114;DHT22;74483;48.846;2.358;2024-03-02T06:52:36;20.90;25.20
84114;DHT22;74483;48.846;2.358;2024-03-02T06:55:02;20.90;25.10
84114;DHT22;74483;48.846;2.358;2024-03-02T06:57:30;20.90;25.80
84114;DHT22;74483;48.846;2.358;2024-03-02T06:59:55;20.90;25.10
84114;DHT22;74483;48.846;2.358;2024-03-02T07:02:24;20.90;25.10
84114;DHT22;74483;48.846;2.358;2024-03-02T07:04:51;20.90;25.10
84114;DHT22;74483;48.846;2.358;2024-03-02T07:07:16;20.90;25.10
84114;DHT22;74483;48.846;2.358;2024-03-02T07:09:42;20.90;25.10
84114;DHT22;74483;48.846;2.358;2024-03-02T07:12:07;21.00;25.10
84114;DHT22;74483;48.846;2.358;2024-03-02T07:14:33;20.90;25.00
84114;DHT22;74483;48.846;2.358;2024-03-02T07:17:17;21.00;25.00
84114;DHT22;74483;48.846;2.358;2024-03-02T07:19:43;21.00;25.00
84114;DHT22;74483;48.846;2.358;2024-03-02T07:22:08;21.00;25.00
84114;DHT22;74483;48.846;2.358;2024-03-02T07:24:44;21.00;25.00
84114;DHT22;74483;48.846;2.358;2024-03-02T07:27:11;21.00;25.00
84114;DHT22;74483;48.846;2.358;2024-03-02T07:29:38;21.00;24.90
84114;DHT22;74483;48.846;2.358;2024-03-02T07:32:04;21.00;24.90
84114;DHT22;74483;48.846;2.358;2024-03-02T07:34:30;21.00;24.80
84114;DHT22;74483;48.846;2.358;2024-03-02T07:36:55;21.10;24.90
84114;DHT22;74483;48.846;2.358;2024-03-02T07:39:21;21.10;24.80
84114;DHT22;74483;48.846;2.358;2024-03-02T07:41:47;21.10;24.80
84114;DHT22;74483;48.846;2.358;2024-03-02T07:44:12;21.10;24.80
84114;DHT22;74483;48.846;2.358;2024-03-02T07:46:42;21.10;24.80
84114;DHT22;74483;48.846;2.358;2024-03-02T07:49:08;21.10;24.70
84114;DHT22;74483;48.846;2.358;2024-03-02T07:51:34;21.10;24.70
84114;DHT22;74483;48.846;2.358;2024-03-02T07:54:00;21.10;24.70
84114;DHT22;74483;48.846;2.358;2024-03-02T07:56:26;21.10;24.70
84114;DHT22;74483;48.846;2.358;2024-03-02T07:58:52;21.10;24.70
84114;DHT22;74483;48.846;2.358;2024-03-02T08:01:18;21.10;24.70
84114;DHT22;74483;48.846;2.358;2024-03-02T08:03:44;21.10;24.70
84114;DHT22;74483;48.846;2.358;2024-03-02T08:06:14;21.20;24.60
84114;DHT22;74483;48.846;2.358;2024-03-02T08:08:43;21.20;24.60
84114;DHT22;74483;48.846;2.358;2024-03-02T08:11:08;21.20;24.60
84114;DHT22;74483;48.846;2.358;2024-03-02T08:13:34;21.20;24.50
84114;DHT22;74483;48.846;2.358;2024-03-02T08:16:00;21.20;24.50
84114;DHT22;74483;48.846;2.358;2024-03-02T08:18:28;21.20;24.50
84114;DHT22;74483;48.846;2.358;2024-03-02T08:20:54;21.20;24.50
84114;DHT22;74483;48.846;2.358;2024-03-02T08:23:20;21.20;24.50
84114;DHT22;74483;48.846;2.358;2024-03-02T08:25:45;21.20;24.50
84114;DHT22;74483;48.846;2.358;2024-03-02T08:28:12;21.20;24.50
84114;DHT22;74483;48.846;2.358;2024-03-02T08:30:37;21.30;24.50
84114;DHT22;74483;48.846;2.358;2024-03-02T08:33:03;21.20;24.40
84114;DHT22;74483;48.846;2.358;2024-03-02T08:35:28;21.20;24.50
84114;DHT22;74483;48.846;2.358;2024-03-02T08:37:54;21.30;24.50
84114;DHT22;74483;48.846;2.358;2024-03-02T08:40:20;21.20;24.50
84114;DHT22;74483;48.846;2.358;2024-03-02T08:42:46;21.20;24.50
84114;DHT22;74483;48.846;2.358;2024-03-02T08:45:12;21.20;24.50
84114;DHT22;74483;48.846;2.358;2024-03-02T08:47:38;21.20;24.50
84114;DHT22;74483;48.846;2.358;2024-03-02T08:50:04;21.20;25.20
84114;DHT22;74483;48.846;2.358;2024-03-02T08:52:30;21.20;24.50
84114;DHT22;74483;48.846;2.358;2024-03-02T08:54:56;21.20;24.60
84114;DHT22;74483;48.846;2.358;2024-03-02T08:57:21;21.20;24.50
84114;DHT22;74483;48.846;2.358;2024-03-02T08:59:47;21.20;24.60
84114;DHT22;74483;48.846;2.358;2024-03-02T09:02:12;21.10;24.60
84114;DHT22;74483;48.846;2.358;2024-03-02T09:04:38;21.20;24.60
84114;DHT22;74483;48.846;2.358;2024-03-02T09:07:03;21.20;24.60
84114;DHT22;74483;48.846;2.358;2024-03-02T09:09:29;21.20;24.60
84114;DHT22;74483;48.846;2.358;2024-03-02T09:11:57;21.20;24.60
84114;DHT22;74483;48.846;2.358;2024-03-02T09:14:23;21.20;24.60
84114;DHT22;74483;48.846;2.358;2024-03-02T09:16:49;21.10;24.60
84114;DHT22;74483;48.846;2.358;2024-03-02T09:19:14;21.10;24.60
84114;DHT22;74483;48.846;2.358;2024-03-02T09:21:42;21.10;24.60
84114;DHT22;74483;48.846;2.358;2024-03-02T09:24:07;21.10;24.70
84114;DHT22;74483;48.846;2.358;2024-03-02T09:26:33;21.10;24.70
84114;DHT22;74483;48.846;2.358;2024-03-02T09:28:58;21.10;24.70
84114;DHT22;74483;48.846;2.358;2024-03-02T09:31:24;21.10;24.70
84114;DHT22;74483;48.846;2.358;2024-03-02T09:33:49;21.10;24.80
84114;DHT22;74483;48.846;2.358;2024-03-02T09:36:19;21.10;24.80
84114;DHT22;74483;48.846;2.358;2024-03-02T09:38:45;21.10;24.80
84114;DHT22;74483;48.846;2.358;2024-03-02T09:41:11;21.10;24.80
84114;DHT22;74483;48.846;2.358;2024-03-02T09:43:38;21.10;24.80
84114;DHT22;74483;48.846;2.358;2024-03-02T09:46:03;21.10;24.80
84114;DHT22;74483;48.846;2.358;2024-03-02T09:48:29;21.10;24.80
84114;DHT22;74483;48.846;2.358;2024-03-02T09:50:55;21.10;24.80
84114;DHT22;74483;48.846;2.358;2024-03-02T09:53:22;21.10;24.90
84114;DHT22;74483;48.846;2.358;2024-03-02T09:55:48;21.10;25.50
84114;DHT22;74483;48.846;2.358;2024-03-02T09:58:14;21.10;24.80
84114;DHT22;74483;48.846;2.358;2024-03-02T10:00:39;21.10;24.80
84114;DHT22;74483;48.846;2.358;2024-03-02T10:03:05;21.20;24.80
84114;DHT22;74483;48.846;2.358;2024-03-02T10:05:30;21.20;24.80
84114;DHT22;74483;48.846;2.358;2024-03-02T10:08:01;21.20;24.80
84114;DHT22;74483;48.846;2.358;2024-03-02T10:10:35;21.20;24.70
84114;DHT22;74483;48.846;2.358;2024-03-02T10:13:05;21.30;24.70
84114;DHT22;74483;48.846;2.358;2024-03-02T10:15:32;21.30;24.70
84114;DHT22;74483;48.846;2.358;2024-03-02T10:17:58;21.30;24.60
84114;DHT22;74483;48.846;2.358;2024-03-02T10:20:24;21.30;24.60
84114;DHT22;74483;48.846;2.358;2024-03-02T10:22:50;21.40;24.50
84114;DHT22;74483;48.846;2.358;2024-03-02T10:25:32;21.40;24.50
84114;DHT22;74483;48.846;2.358;2024-03-02T10:27:59;21.40;24.50
84114;DHT22;74483;48.846;2.358;2024-03-02T10:30:30;21.40;24.60
84114;DHT22;74483;48.846;2.358;2024-03-02T10:32:56;21.30;24.60
84114;DHT22;74483;48.846;2.358;2024-03-02T10:35:22;21.30;24.70
84114;DHT22;74483;48.846;2.358;2024-03-02T10:37:52;21.30;24.70
84114;DHT22;74483;48.846;2.358;2024-03-02T10:40:18;21.30;24.80
84114;DHT22;74483;48.846;2.358;2024-03-02T10:42:47;21.30;24.80
84114;DHT22;74483;48.846;2.358;2024-03-02T10:45:15;21.30;24.80
84114;DHT22;74483;48.846;2.358;2024-03-02T10:47:42;21.20;24.80
84114;DHT22;74483;48.846;2.358;2024-03-02T10:50:09;21.30;25.00
84114;DHT22;74483;48.846;2.358;2024-03-02T10:52:35;21.20;24.90
84114;DHT22;74483;48.846;2.358;2024-03-02T10:55:01;21.30;25.00
84114;DHT22;74483;48.846;2.358;2024-03-02T10:57:41;21.30;25.10
84114;DHT22;74483;48.846;2.358;2024-03-02T11:00:11;21.20;25.00
84114;DHT22;74483;48.846;2.358;2024-03-02T11:02:52;21.30;25.10
84114;DHT22;74483;48.846;2.358;2024-03-02T11:05:28;21.30;25.10
84114;DHT22;74483;48.846;2.358;2024-03-02T11:08:07;21.30;25.10
84114;DHT22;74483;48.846;2.358;2024-03-02T11:10:35;21.30;25.00
84114;DHT22;74483;48.846;2.358;2024-03-02T11:13:05;21.30;25.00
84114;DHT22;74483;48.846;2.358;2024-03-02T11:15:35;21.30;25.00
84114;DHT22;74483;48.846;2.358;2024-03-02T11:18:04;21.30;25.60
84114;DHT22;74483;48.846;2.358;2024-03-02T11:20:32;21.40;24.90
84114;DHT22;74483;48.846;2.358;2024-03-02T11:23:05;21.40;24.80
84114;DHT22;74483;48.846;2.358;2024-03-02T11:25:31;21.50;24.80
84114;DHT22;74483;48.846;2.358;2024-03-02T11:33:02;21.60;24.60
84114;DHT22;74483;48.846;2.358;2024-03-02T11:35:35;21.60;24.50
84114;DHT22;74483;48.846;2.358;2024-03-02T11:38:01;21.60;24.50
84114;DHT22;74483;48.846;2.358;2024-03-02T11:40:29;21.60;24.60
84114;DHT22;74483;48.846;2.358;2024-03-02T11:42:56;21.60;24.60
84114;DHT22;74483;48.846;2.358;2024-03-02T11:45:28;21.60;24.60
84114;DHT22;74483;48.846;2.358;2024-03-02T11:47:56;21.60;24.60
84114;DHT22;74483;48.846;2.358;2024-03-02T11:50:36;21.60;24.70
84114;DHT22;74483;48.846;2.358;2024-03-02T11:53:09;21.60;24.60
84114;DHT22;74483;48.846;2.358;2024-03-02T11:55:36;21.60;24.70
84114;DHT22;74483;48.846;2.358;2024-03-02T11:58:05;21.60;24.70
84114;DHT22;74483;48.846;2.358;2024-03-02T12:00:31;21.60;24.70
84114;DHT22;74483;48.846;2.358;2024-03-02T12:03:07;21.60;24.80
84114;DHT22;74483;48.846;2.358;2024-03-02T12:05:33;21.60;24.70
84114;DHT22;74483;48.846;2.358;2024-03-02T12:08:01;21.60;24.70
84114;DHT22;74483;48.846;2.358;2024-03-02T12:10:28;21.60;24.70
84114;DHT22;74483;48.846;2.358;2024-03-02T12:13:04;21.60;24.70
84114;DHT22;74483;48.846;2.358;2024-03-02T12:15:31;21.60;24.70
84114;DHT22;74483;48.846;2.358;2024-03-02T12:17:58;21.60;24.70
84114;DHT22;74483;48.846;2.358;2024-03-02T12:20:25;21.60;24.70
84114;DHT22;74483;48.846;2.358;2024-03-02T12:22:55;21.60;24.70
84114;DHT22;74483;48.846;2.358;2024-03-02T12:25:22;21.60;24.70
84114;DHT22;74483;48.846;2.358;2024-03-02T12:27:50;21.60;24.80
84114;DHT22;74483;48.846;2.358;2024-03-02T12:30:17;21.70;24.80
84114;DHT22;74483;48.846;2.358;2024-03-02T12:32:44;21.60;24.70
84114;DHT22;74483;48.846;2.358;2024-03-02T12:35:11;21.60;24.70
84114;DHT22;74483;48.846;2.358;2024-03-02T12:37:47;21.70;24.70
84114;DHT22;74483;48.846;2.358;2024-03-02T12:40:14;21.70;24.70
84114;DHT22;74483;48.846;2.358;2024-03-02T12:42:40;21.70;24.70
84114;DHT22;74483;48.846;2.358;2024-03-02T12:45:07;21.70;24.70
84114;DHT22;74483;48.846;2.358;2024-03-02T12:47:34;21.70;24.70
84114;DHT22;74483;48.846;2.358;2024-03-02T12:50:00;21.70;24.70
84114;DHT22;74483;48.846;2.358;2024-03-02T12:52:26;21.70;24.60
84114;DHT22;74483;48.846;2.358;2024-03-02T12:54:52;21.70;25.30
84114;DHT22;74483;48.846;2.358;2024-03-02T12:57:25;21.70;24.60
84114;DHT22;74483;48.846;2.358;2024-03-02T12:59:52;21.70;24.70
84114;DHT22;74483;48.846;2.358;2024-03-02T13:02:18;21.70;24.70
84114;DHT22;74483;48.846;2.358;2024-03-02T13:04:43;21.70;24.70
84114;DHT22;74483;48.846;2.358;2024-03-02T13:07:10;21.70;24.70
84114;DHT22;74483;48.846;2.358;2024-03-02T13:09:36;21.70;24.70
84114;DHT22;74483;48.846;2.358;2024-03-02T13:12:03;21.70;24.70
84114;DHT22;74483;48.846;2.358;2024-03-02T13:14:32;21.70;24.70
84114;DHT22;74483;48.846;2.358;2024-03-02T13:16:58;21.70;24.80
84114;DHT22;74483;48.846;2.358;2024-03-02T13:19:25;21.70;24.80
84114;DHT22;74483;48.846;2.358;2024-03-02T13:21:51;21.70;24.80
84114;DHT22;74483;48.846;2.358;2024-03-02T13:24:16;21.70;24.70
84114;DHT22;74483;48.846;2.358;2024-03-02T13:26:42;21.80;24.70
84114;DHT22;74483;48.846;2.358;2024-03-02T13:29:08;21.70;24.70
84114;DHT22;74483;48.846;2.358;2024-03-02T13:31:34;21.70;24.70
84114;DHT22;74483;48.846;2.358;2024-03-02T13:34:00;21.70;24.70
84114;DHT22;74483;48.846;2.358;2024-03-02T13:36:25;21.70;24.70
84114;DHT22;74483;48.846;2.358;2024-03-02T13:38:51;21.70;24.70
84114;DHT22;74483;48.846;2.358;2024-03-02T13:41:16;21.70;24.70
84114;DHT22;74483;48.846;2.358;2024-03-02T13:43:42;21.70;24.70
84114;DHT22;74483;48.846;2.358;2024-03-02T13:46:10;21.80;24.70
84114;DHT22;74483;48.846;2.358;2024-03-02T13:48:36;21.70;24.70
84114;DHT22;74483;48.846;2.358;2024-03-02T13:51:02;21.70;24.80
84114;DHT22;74483;48.846;2.358;2024-03-02T13:53:27;21.70;24.80
84114;DHT22;74483;48.846;2.358;2024-03-02T13:55:53;21.70;24.80
84114;DHT22;74483;48.846;2.358;2024-03-02T13:58:19;21.70;24.80
84114;DHT22;74483;48.846;2.358;2024-03-02T14:00:46;21.70;24.90
84114;DHT22;74483;48.846;2.358;2024-03-02T14:03:12;21.70;25.00
84114;DHT22;74483;48.846;2.358;2024-03-02T14:05:37;21.60;25.00
84114;DHT22;74483;48.846;2.358;2024-03-02T14:08:03;21.60;25.00
84114;DHT22;74483;48.846;2.358;2024-03-02T14:10:29;21.60;25.00
84114;DHT22;74483;48.846;2.358;2024-03-02T14:12:55;21.60;25.00
84114;DHT22;74483;48.846;2.358;2024-03-02T14:15:21;21.60;25.10
84114;DHT22;74483;48.846;2.358;2024-03-02T14:17:46;21.60;25.00
84114;DHT22;74483;48.846;2.358;2024-03-02T14:20:12;21.70;25.10
84114;DHT22;74483;48.846;2.358;2024-03-02T14:22:39;21.70;25.10
84114;DHT22;74483;48.846;2.358;2024-03-02T14:25:05;21.60;25.10
84114;DHT22;74483;48.846;2.358;2024-03-02T14:27:31;21.60;25.10
84114;DHT22;74483;48.846;2.358;2024-03-02T14:29:56;21.60;25.10
84114;DHT22;74483;48.846;2.358;2024-03-02T14:32:22;21.60;25.20
84114;DHT22;74483;48.846;2.358;2024-03-02T14:34:47;21.60;25.20
84114;DHT22;74483;48.846;2.358;2024-03-02T14:37:14;21.60;25.30
84114;DHT22;74483;48.846;2.358;2024-03-02T14:39:40;21.50;25.30
84114;DHT22;74483;48.846;2.358;2024-03-02T14:42:06;21.50;25.40
84114;DHT22;74483;48.846;2.358;2024-03-02T14:44:32;21.50;25.50
84114;DHT22;74483;48.846;2.358;2024-03-02T14:46:59;21.50;25.50
84114;DHT22;74483;48.846;2.358;2024-03-02T14:49:25;21.50;25.60
84114;DHT22;74483;48.846;2.358;2024-03-02T14:51:50;21.50;25.60
84114;DHT22;74483;48.846;2.358;2024-03-02T14:54:16;21.40;25.50
84114;DHT22;74483;48.846;2.358;2024-03-02T14:56:42;21.40;25.50
84114;DHT22;74483;48.846;2.358;2024-03-02T14:59:08;21.40;25.60
84114;DHT22;74483;48.846;2.358;2024-03-02T15:01:33;21.40;25.60
84114;DHT22;74483;48.846;2.358;2024-03-02T15:03:59;21.40;25.70
84114;DHT22;74483;48.846;2.358;2024-03-02T15:06:25;21.40;25.80
84114;DHT22;74483;48.846;2.358;2024-03-02T15:08:50;21.30;25.80
84114;DHT22;74483;48.846;2.358;2024-03-02T15:11:16;21.30;25.80
84114;DHT22;74483;48.846;2.358;2024-03-02T15:13:42;21.30;25.90
84114;DHT22;74483;48.846;2.358;2024-03-02T15:16:08;21.30;25.90
84114;DHT22;74483;48.846;2.358;2024-03-02T15:18:33;21.30;25.90
84114;DHT22;74483;48.846;2.358;2024-03-02T15:21:00;21.30;26.00
84114;DHT22;74483;48.846;2.358;2024-03-02T15:23:25;21.20;25.90
84114;DHT22;74483;48.846;2.358;2024-03-02T15:25:51;21.30;26.10
84114;DHT22;74483;48.846;2.358;2024-03-02T15:28:17;21.30;26.10
84114;DHT22;74483;48.846;2.358;2024-03-02T15:30:43;21.20;26.10
84114;DHT22;74483;48.846;2.358;2024-03-02T15:33:09;21.20;26.00
84114;DHT22;74483;48.846;2.358;2024-03-02T15:35:35;21.20;26.10